sensor_id;sensor_type;location;lat;lon;timestamp;temperature;humidity
33837;DHT22;20140;49.356;8.812;2023-06-05T00:01:12;15.50;97.90
33837;DHT22;20140;49.356;8.812;2023-06-05T00:03:38;15.50;97.50
33837;DHT22;20140;49.356;8.812;2023-06-05T00:06:05;15.50;97.60
33837;DHT22;20140;49.356;8.812;2023-06-05T00:08:31;15.50;97.90
33837;DHT22;20140;49.356;8.812;2023-06-05T00:10:57;15.60;97.80
33837;DHT22;20140;49.356;8.812;2023-06-05T00:13:22;15.50;96.90
33837;DHT22;20140;49.356;8.812;2023-06-05T00:15:48;15.50;97.40
33837;DHT22;20140;49.356;8.812;2023-06-05T00:18:14;15.40;98.70
33837;DHT22;20140;49.356;8.812;2023-06-05T00:20:39;15.30;99.90
33837;DHT22;20140;49.356;8.812;2023-06-05T00:23:05;15.20;99.90
33837;DHT22;20140;49.356;8.812;2023-06-05T00:25:31;15.10;99.90
33837;DHT22;20140;49.356;8.812;2023-06-05T00:27:56;14.90;99.90
33837;DHT22;20140;49.356;8.812;2023-06-05T00:30:22;15.00;99.80
33837;DHT22;20140;49.356;8.812;2023-06-05T00:32:47;15.00;99.10
33837;DHT22;20140;49.356;8.812;2023-06-05T00:35:13;15.10;98.80
33837;DHT22;20140;49.356;8.812;2023-06-05T00:37:39;15.20;98.20
33837;DHT22;20140;49.356;8.812;2023-06-05T00:40:05;15.10;98.60
33837;DHT22;20140;49.356;8.812;2023-06-05T00:42:31;15.20;98.10
33837;DHT22;20140;49.356;8.812;2023-06-05T00:44:57;15.10;98.50
33837;DHT22;20140;49.356;8.812;2023-06-05T00:47:22;14.90;99.90
33837;DHT22;20140;49.356;8.812;2023-06-05T00:49:48;14.70;99.90
33837;DHT22;20140;49.356;8.812;2023-06-05T00:52:15;14.50;99.90
33837;DHT22;20140;49.356;8.812;2023-06-05T00:54:41;14.40;99.90
33837;DHT22;20140;49.356;8.812;2023-06-05T00:57:08;14.30;99.90
33837;DHT22;20140;49.356;8.812;2023-06-05T00:59:34;14.30;99.90
33837;DHT22;20140;49.356;8.812;2023-06-05T01:02:01;14.30;99.90
33837;DHT22;20140;49.356;8.812;2023-06-05T01:04:31;14.30;99.90
33837;DHT22;20140;49.356;8.812;2023-06-05T01:06:58;14.20;99.90
33837;DHT22;20140;49.356;8.812;2023-06-05T01:09:26;13.90;99.90
33837;DHT22;20140;49.356;8.812;2023-06-05T01:12:28;13.90;99.90
33837;DHT22;20140;49.356;8.812;2023-06-05T01:14:48;13.80;99.90
33837;DHT22;20140;49.356;8.812;2023-06-05T01:17:14;13.80;99.90
33837;DHT22;20140;49.356;8.812;2023-06-05T01:19:43;13.60;99.90
33837;DHT22;20140;49.356;8.812;2023-06-05T01:22:09;13.50;99.90
33837;DHT22;20140;49.356;8.812;2023-06-05T01:24:35;13.50;99.90
33837;DHT22;20140;49.356;8.812;2023-06-05T01:27:32;13.40;99.90
33837;DHT22;20140;49.356;8.812;2023-06-05T01:32:46;13.20;99.90
33837;DHT22;20140;49.356;8.812;2023-06-05T01:35:19;13.20;99.90
33837;DHT22;20140;49.356;8.812;2023-06-05T01:37:47;13.10;99.90
33837;DHT22;20140;49.356;8.812;2023-06-05T01:40:19;13.10;99.90
33837;DHT22;20140;49.356;8.812;2023-06-05T01:42:46;13.10;99.90
33837;DHT22;20140;49.356;8.812;2023-06-05T01:45:14;12.90;99.90
33837;DHT22;20140;49.356;8.812;2023-06-05T01:47:41;13.00;99.90
33837;DHT22;20140;49.356;8.812;2023-06-05T01:50:08;12.70;99.90
33837;DHT22;20140;49.356;8.812;2023-06-05T01:52:35;12.70;99.90
33837;DHT22;20140;49.356;8.812;2023-06-05T01:55:01;12.60;99.90
33837;DHT22;20140;49.356;8.812;2023-06-05T01:57:28;12.60;99.90
33837;DHT22;20140;49.356;8.812;2023-06-05T01:59:54;12.60;99.90
33837;DHT22;20140;49.356;8.812;2023-06-05T02:02:20;12.70;99.90
33837;DHT22;20140;49.356;8.812;2023-06-05T02:04:50;12.80;99.90
33837;DHT22;20140;49.356;8.812;2023-06-05T02:07:15;12.70;99.90
33837;DHT22;20140;49.356;8.812;2023-06-05T02:09:41;12.70;99.90
33837;DHT22;20140;49.356;8.812;2023-06-05T02:12:07;12.70;99.90
33837;DHT22;20140;49.356;8.812;2023-06-05T02:14:33;12.60;99.90
33837;DHT22;20140;49.356;8.812;2023-06-05T02:17:03;12.50;99.90
33837;DHT22;20140;49.356;8.812;2023-06-05T02:19:35;12.50;99.90
33837;DHT22;20140;49.356;8.812;2023-06-05T02:22:00;12.20;99.90
33837;DHT22;20140;49.356;8.812;2023-06-05T02:24:26;12.10;99.90
33837;DHT22;20140;49.356;8.812;2023-06-05T02:26:52;12.10;99.90
33837;DHT22;20140;49.356;8.812;2023-06-05T02:29:18;12.10;99.90
33837;DHT22;20140;49.356;8.812;2023-06-05T02:31:43;12.10;99.90
33837;DHT22;20140;49.356;8.812;2023-06-05T02:34:09;12.20;99.90
33837;DHT22;20140;49.356;8.812;2023-06-05T02:36:34;12.00;99.90
33837;DHT22;20140;49.356;8.812;2023-06-05T02:39:01;12.00;99.90
33837;DHT22;20140;49.356;8.812;2023-06-05T02:41:27;11.90;99.90
33837;DHT22;20140;49.356;8.812;2023-06-05T02:43:53;11.80;99.90
33837;DHT22;20140;49.356;8.812;2023-06-05T02:46:20;11.70;99.90
33837;DHT22;20140;49.356;8.812;2023-06-05T02:48:47;11.80;99.90
33837;DHT22;20140;49.356;8.812;2023-06-05T02:51:12;12.00;99.90
33837;DHT22;20140;49.356;8.812;2023-06-05T02:53:38;12.10;99.90
33837;DHT22;20140;49.356;8.812;2023-06-05T02:56:04;12.10;99.90
33837;DHT22;20140;49.356;8.812;2023-06-05T02:58:30;12.00;99.90
33837;DHT22;20140;49.356;8.812;2023-06-05T03:00:57;12.00;99.90
33837;DHT22;20140;49.356;8.812;2023-06-05T03:03:28;11.90;99.90
33837;DHT22;20140;49.356;8.812;2023-06-05T03:05:56;11.80;99.90
33837;DHT22;20140;49.356;8.812;2023-06-05T03:08:21;11.70;99.90
33837;DHT22;20140;49.356;8.812;2023-06-05T03:10:47;11.60;99.90
33837;DHT22;20140;49.356;8.812;2023-06-05T03:13:12;11.60;99.90
33837;DHT22;20140;49.356;8.812;2023-06-05T03:15:38;11.50;99.90
33837;DHT22;20140;49.356;8.812;2023-06-05T03:18:04;11.50;99.90
33837;DHT22;20140;49.356;8.812;2023-06-05T03:20:30;11.40;99.90
33837;DHT22;20140;49.356;8.812;2023-06-05T03:22:56;11.20;99.90
33837;DHT22;20140;49.356;8.812;2023-06-05T03:25:22;11.20;99.90
33837;DHT22;20140;49.356;8.812;2023-06-05T03:27:48;11.20;99.90
33837;DHT22;20140;49.356;8.812;2023-06-05T03:30:14;11.20;99.90
33837;DHT22;20140;49.356;8.812;2023-06-05T03:32:41;11.20;99.90
33837;DHT22;20140;49.356;8.812;2023-06-05T03:35:07;11.30;99.90
33837;DHT22;20140;49.356;8.812;2023-06-05T03:37:34;11.30;99.90
33837;DHT22;20140;49.356;8.812;2023-06-05T03:39:59;11.30;99.90
33837;DHT22;20140;49.356;8.812;2023-06-05T03:42:25;11.40;99.90
33837;DHT22;20140;49.356;8.812;2023-06-05T03:44:50;11.40;99.90
33837;DHT22;20140;49.356;8.812;2023-06-05T03:47:16;11.20;99.90
33837;DHT22;20140;49.356;8.812;2023-06-05T03:49:42;11.20;99.90
33837;DHT22;20140;49.356;8.812;2023-06-05T03:52:13;11.20;99.90
33837;DHT22;20140;49.356;8.812;2023-06-05T03:54:40;11.30;99.90
33837;DHT22;20140;49.356;8.812;2023-06-05T03:57:06;11.30;99.90
33837;DHT22;20140;49.356;8.812;2023-06-05T03:59:35;11.30;99.90
33837;DHT22;20140;49.356;8.812;2023-06-05T04:02:00;11.00;99.90
33837;DHT22;20140;49.356;8.812;2023-06-05T04:04:27;11.10;99.90
33837;DHT22;20140;49.356;8.812;2023-06-05T04:06:54;11.10;99.90
33837;DHT22;20140;49.356;8.812;2023-06-05T04:09:20;11.10;99.90
33837;DHT22;20140;49.356;8.812;2023-06-05T04:11:46;11.10;99.90
33837;DHT22;20140;49.356;8.812;2023-06-05T04:14:12;11.20;99.90
33837;DHT22;20140;49.356;8.812;2023-06-05T04:16:38;11.20;99.90
33837;DHT22;20140;49.356;8.812;2023-06-05T04:19:05;11.20;99.90
33837;DHT22;20140;49.356;8.812;2023-06-05T04:21:32;11.30;99.90
33837;DHT22;20140;49.356;8.812;2023-06-05T04:23:59;11.30;99.90
33837;DHT22;20140;49.356;8.812;2023-06-05T04:26:25;11.80;99.90
33837;DHT22;20140;49.356;8.812;2023-06-05T04:28:51;12.30;99.90
33837;DHT22;20140;49.356;8.812;2023-06-05T04:31:17;12.60;99.90
33837;DHT22;20140;49.356;8.812;2023-06-05T04:33:43;12.80;99.90
33837;DHT22;20140;49.356;8.812;2023-06-05T04:36:09;13.00;99.90
33837;DHT22;20140;49.356;8.812;2023-06-05T04:38:34;12.80;99.90
33837;DHT22;20140;49.356;8.812;2023-06-05T04:41:00;12.70;99.90
33837;DHT22;20140;49.356;8.812;2023-06-05T04:43:25;12.50;99.90
33837;DHT22;20140;49.356;8.812;2023-06-05T04:45:51;12.50;99.90
33837;DHT22;20140;49.356;8.812;2023-06-05T04:48:17;12.60;99.90
33837;DHT22;20140;49.356;8.812;2023-06-05T04:50:42;12.60;99.90
33837;DHT22;20140;49.356;8.812;2023-06-05T04:53:08;12.60;99.90
33837;DHT22;20140;49.356;8.812;2023-06-05T04:55:34;12.80;99.90
33837;DHT22;20140;49.356;8.812;2023-06-05T04:57:59;12.80;99.90
33837;DHT22;20140;49.356;8.812;2023-06-05T05:00:26;12.80;99.90
33837;DHT22;20140;49.356;8.812;2023-06-05T05:02:52;12.60;99.90
33837;DHT22;20140;49.356;8.812;2023-06-05T05:05:19;12.70;99.90
33837;DHT22;20140;49.356;8.812;2023-06-05T05:07:45;12.80;99.90
33837;DHT22;20140;49.356;8.812;2023-06-05T05:10:11;13.00;99.90
33837;DHT22;20140;49.356;8.812;2023-06-05T05:12:37;13.20;99.90
33837;DHT22;20140;49.356;8.812;2023-06-05T05:15:03;13.30;99.90
33837;DHT22;20140;49.356;8.812;2023-06-05T05:17:30;13.40;99.90
33837;DHT22;20140;49.356;8.812;2023-06-05T05:19:55;13.50;99.90
33837;DHT22;20140;49.356;8.812;2023-06-05T05:22:21;13.60;99.90
33837;DHT22;20140;49.356;8.812;2023-06-05T05:24:47;13.70;99.90
33837;DHT22;20140;49.356;8.812;2023-06-05T05:27:12;13.70;99.90
33837;DHT22;20140;49.356;8.812;2023-06-05T05:29:38;13.90;99.90
33837;DHT22;20140;49.356;8.812;2023-06-05T05:32:03;14.00;99.90
33837;DHT22;20140;49.356;8.812;2023-06-05T05:34:30;14.10;99.90
33837;DHT22;20140;49.356;8.812;2023-06-05T05:36:56;14.10;99.90
33837;DHT22;20140;49.356;8.812;2023-06-05T05:39:22;14.30;99.90
33837;DHT22;20140;49.356;8.812;2023-06-05T05:41:47;14.30;99.90
33837;DHT22;20140;49.356;8.812;2023-06-05T05:44:13;14.40;99.90
33837;DHT22;20140;49.356;8.812;2023-06-05T05:46:38;14.50;99.90
33837;DHT22;20140;49.356;8.812;2023-06-05T05:49:04;14.50;99.90
33837;DHT22;20140;49.356;8.812;2023-06-05T05:51:29;14.60;99.90
33837;DHT22;20140;49.356;8.812;2023-06-05T05:53:55;14.60;99.90
33837;DHT22;20140;49.356;8.812;2023-06-05T05:56:20;14.80;99.90
33837;DHT22;20140;49.356;8.812;2023-06-05T05:58:46;14.90;99.90
33837;DHT22;20140;49.356;8.812;2023-06-05T06:01:12;14.90;99.90
33837;DHT22;20140;49.356;8.812;2023-06-05T06:03:38;15.00;99.90
33837;DHT22;20140;49.356;8.812;2023-06-05T06:06:04;15.20;99.90
33837;DHT22;20140;49.356;8.812;2023-06-05T06:08:36;15.30;99.90
33837;DHT22;20140;49.356;8.812;2023-06-05T06:11:01;15.40;99.90
33837;DHT22;20140;49.356;8.812;2023-06-05T06:13:32;15.40;99.90
33837;DHT22;20140;49.356;8.812;2023-06-05T06:15:58;15.40;99.90
33837;DHT22;20140;49.356;8.812;2023-06-05T06:18:23;15.50;99.90
33837;DHT22;20140;49.356;8.812;2023-06-05T06:20:49;15.60;99.90
33837;DHT22;20140;49.356;8.812;2023-06-05T06:23:14;15.60;99.90
33837;DHT22;20140;49.356;8.812;2023-06-05T06:25:40;15.80;99.90
33837;DHT22;20140;49.356;8.812;2023-06-05T06:28:06;16.00;99.90
33837;DHT22;20140;49.356;8.812;2023-06-05T06:30:31;16.10;99.90
33837;DHT22;20140;49.356;8.812;2023-06-05T06:32:57;16.30;99.90
33837;DHT22;20140;49.356;8.812;2023-06-05T06:35:26;16.30;99.90
33837;DHT22;20140;49.356;8.812;2023-06-05T06:37:55;16.40;99.90
33837;DHT22;20140;49.356;8.812;2023-06-05T06:40:22;16.50;99.90
33837;DHT22;20140;49.356;8.812;2023-06-05T06:42:48;16.60;99.90
33837;DHT22;20140;49.356;8.812;2023-06-05T06:45:14;16.60;99.90
33837;DHT22;20140;49.356;8.812;2023-06-05T06:47:40;16.70;99.90
33837;DHT22;20140;49.356;8.812;2023-06-05T06:50:06;16.80;99.90
33837;DHT22;20140;49.356;8.812;2023-06-05T06:52:32;16.90;99.90
33837;DHT22;20140;49.356;8.812;2023-06-05T06:54:58;17.00;99.90
33837;DHT22;20140;49.356;8.812;2023-06-05T06:57:23;17.00;99.90
33837;DHT22;20140;49.356;8.812;2023-06-05T06:59:49;16.90;99.90
33837;DHT22;20140;49.356;8.812;2023-06-05T07:02:16;17.00;99.90
33837;DHT22;20140;49.356;8.812;2023-06-05T07:04:42;17.00;99.90
33837;DHT22;20140;49.356;8.812;2023-06-05T07:07:13;17.20;99.90
33837;DHT22;20140;49.356;8.812;2023-06-05T07:09:43;17.30;99.90
33837;DHT22;20140;49.356;8.812;2023-06-05T07:12:10;17.40;99.90
33837;DHT22;20140;49.356;8.812;2023-06-05T07:14:37;17.40;99.90
33837;DHT22;20140;49.356;8.812;2023-06-05T07:17:03;17.50;99.90
33837;DHT22;20140;49.356;8.812;2023-06-05T07:19:32;17.50;99.90
33837;DHT22;20140;49.356;8.812;2023-06-05T07:21:59;17.60;99.90
33837;DHT22;20140;49.356;8.812;2023-06-05T07:24:25;17.60;99.80
33837;DHT22;20140;49.356;8.812;2023-06-05T07:26:53;17.70;99.70
33837;DHT22;20140;49.356;8.812;2023-06-05T07:29:23;18.10;99.90
33837;DHT22;20140;49.356;8.812;2023-06-05T07:31:50;18.20;99.30
33837;DHT22;20140;49.356;8.812;2023-06-05T07:34:18;18.10;99.00
33837;DHT22;20140;49.356;8.812;2023-06-05T07:36:45;18.10;98.70
33837;DHT22;20140;49.356;8.812;2023-06-05T07:39:11;18.20;99.50
33837;DHT22;20140;49.356;8.812;2023-06-05T07:41:37;18.20;98.40
33837;DHT22;20140;49.356;8.812;2023-06-05T07:44:03;18.30;98.00
33837;DHT22;20140;49.356;8.812;2023-06-05T07:46:29;18.40;98.00
33837;DHT22;20140;49.356;8.812;2023-06-05T07:48:54;18.50;98.10
33837;DHT22;20140;49.356;8.812;2023-06-05T07:51:20;18.70;98.00
33837;DHT22;20140;49.356;8.812;2023-06-05T07:53:45;19.00;97.80
33837;DHT22;20140;49.356;8.812;2023-06-05T07:56:11;19.10;97.20
33837;DHT22;20140;49.356;8.812;2023-06-05T07:58:42;19.10;97.70
33837;DHT22;20140;49.356;8.812;2023-06-05T08:01:08;19.20;97.40
33837;DHT22;20140;49.356;8.812;2023-06-05T08:03:33;19.30;96.90
33837;DHT22;20140;49.356;8.812;2023-06-05T08:05:59;19.40;96.90
33837;DHT22;20140;49.356;8.812;2023-06-05T08:08:25;19.50;97.10
33837;DHT22;20140;49.356;8.812;2023-06-05T08:10:51;19.50;97.30
33837;DHT22;20140;49.356;8.812;2023-06-05T08:13:16;19.60;97.20
33837;DHT22;20140;49.356;8.812;2023-06-05T08:15:42;19.70;97.50
33837;DHT22;20140;49.356;8.812;2023-06-05T08:18:08;19.90;97.30
33837;DHT22;20140;49.356;8.812;2023-06-05T08:20:33;20.20;97.90
33837;DHT22;20140;49.356;8.812;2023-06-05T08:22:59;20.30;98.50
33837;DHT22;20140;49.356;8.812;2023-06-05T08:25:26;20.30;97.50
33837;DHT22;20140;49.356;8.812;2023-06-05T08:27:52;20.40;96.70
33837;DHT22;20140;49.356;8.812;2023-06-05T08:30:18;20.40;96.90
33837;DHT22;20140;49.356;8.812;2023-06-05T08:32:43;20.50;97.70
33837;DHT22;20140;49.356;8.812;2023-06-05T08:35:09;20.50;97.80
33837;DHT22;20140;49.356;8.812;2023-06-05T08:37:36;20.60;98.00
33837;DHT22;20140;49.356;8.812;2023-06-05T08:40:03;20.60;97.30
33837;DHT22;20140;49.356;8.812;2023-06-05T08:42:31;20.70;97.30
33837;DHT22;20140;49.356;8.812;2023-06-05T08:44:58;20.90;97.30
33837;DHT22;20140;49.356;8.812;2023-06-05T08:47:27;21.10;97.20
33837;DHT22;20140;49.356;8.812;2023-06-05T08:49:54;21.20;97.20
33837;DHT22;20140;49.356;8.812;2023-06-05T08:52:22;21.20;97.60
33837;DHT22;20140;49.356;8.812;2023-06-05T08:54:49;21.30;97.00
33837;DHT22;20140;49.356;8.812;2023-06-05T08:57:15;21.40;96.70
33837;DHT22;20140;49.356;8.812;2023-06-05T08:59:41;21.40;97.20
33837;DHT22;20140;49.356;8.812;2023-06-05T09:02:08;21.50;96.60
33837;DHT22;20140;49.356;8.812;2023-06-05T09:04:34;21.50;96.00
33837;DHT22;20140;49.356;8.812;2023-06-05T09:07:00;21.60;95.60
33837;DHT22;20140;49.356;8.812;2023-06-05T09:09:26;21.70;96.00
33837;DHT22;20140;49.356;8.812;2023-06-05T09:12:07;21.90;96.10
33837;DHT22;20140;49.356;8.812;2023-06-05T09:14:34;21.90;96.30
33837;DHT22;20140;49.356;8.812;2023-06-05T09:17:02;21.90;96.40
33837;DHT22;20140;49.356;8.812;2023-06-05T09:22:03;22.20;97.40
33837;DHT22;20140;49.356;8.812;2023-06-05T09:24:30;22.30;97.20
33837;DHT22;20140;49.356;8.812;2023-06-05T09:27:07;22.30;97.30
33837;DHT22;20140;49.356;8.812;2023-06-05T09:29:38;22.40;97.80
33837;DHT22;20140;49.356;8.812;2023-06-05T09:32:09;22.40;98.20
33837;DHT22;20140;49.356;8.812;2023-06-05T09:34:35;22.60;97.00
33837;DHT22;20140;49.356;8.812;2023-06-05T09:37:09;22.70;96.10
33837;DHT22;20140;49.356;8.812;2023-06-05T09:39:37;22.70;97.30
33837;DHT22;20140;49.356;8.812;2023-06-05T09:42:03;22.80;98.10
33837;DHT22;20140;49.356;8.812;2023-06-05T09:44:29;23.00;97.90
33837;DHT22;20140;49.356;8.812;2023-06-05T09:47:00;23.20;97.00
33837;DHT22;20140;49.356;8.812;2023-06-05T09:52:06;23.20;97.90
33837;DHT22;20140;49.356;8.812;2023-06-05T09:54:32;23.20;97.90
33837;DHT22;20140;49.356;8.812;2023-06-05T09:57:01;23.20;97.00
33837;DHT22;20140;49.356;8.812;2023-06-05T09:59:34;23.20;97.10
33837;DHT22;20140;49.356;8.812;2023-06-05T10:02:02;23.50;97.20
33837;DHT22;20140;49.356;8.812;2023-06-05T10:04:33;23.60;95.90
33837;DHT22;20140;49.356;8.812;2023-06-05T10:07:01;23.90;97.20
33837;DHT22;20140;49.356;8.812;2023-06-05T10:09:30;24.10;93.80
33837;DHT22;20140;49.356;8.812;2023-06-05T10:11:57;24.20;94.30
33837;DHT22;20140;49.356;8.812;2023-06-05T10:14:23;24.20;90.20
33837;DHT22;20140;49.356;8.812;2023-06-05T10:16:50;24.20;91.20
33837;DHT22;20140;49.356;8.812;2023-06-05T10:19:20;24.20;90.40
33837;DHT22;20140;49.356;8.812;2023-06-05T10:21:47;24.20;88.50
33837;DHT22;20140;49.356;8.812;2023-06-05T10:24:18;24.00;85.70
33837;DHT22;20140;49.356;8.812;2023-06-05T10:29:51;24.20;86.90
33837;DHT22;20140;49.356;8.812;2023-06-05T10:33:17;24.30;86.60
33837;DHT22;20140;49.356;8.812;2023-06-05T10:35:53;24.70;88.60
33837;DHT22;20140;49.356;8.812;2023-06-05T10:38:26;24.90;90.40
33837;DHT22;20140;49.356;8.812;2023-06-05T10:40:54;24.60;86.70
33837;DHT22;20140;49.356;8.812;2023-06-05T10:43:27;24.90;87.20
33837;DHT22;20140;49.356;8.812;2023-06-05T10:45:53;25.30;84.60
33837;DHT22;20140;49.356;8.812;2023-06-05T10:48:19;25.20;83.50
33837;DHT22;20140;49.356;8.812;2023-06-05T10:50:44;25.50;87.70
33837;DHT22;20140;49.356;8.812;2023-06-05T10:53:41;25.70;83.90
33837;DHT22;20140;49.356;8.812;2023-06-05T10:56:07;25.80;81.00
33837;DHT22;20140;49.356;8.812;2023-06-05T10:58:33;25.90;81.00
33837;DHT22;20140;49.356;8.812;2023-06-05T11:01:20;25.90;75.40
33837;DHT22;20140;49.356;8.812;2023-06-05T11:03:58;25.90;80.60
33837;DHT22;20140;49.356;8.812;2023-06-05T11:06:25;25.80;77.20
33837;DHT22;20140;49.356;8.812;2023-06-05T11:09:09;26.00;72.30
33837;DHT22;20140;49.356;8.812;2023-06-05T11:11:54;25.90;76.30
33837;DHT22;20140;49.356;8.812;2023-06-05T11:14:21;25.80;77.30
33837;DHT22;20140;49.356;8.812;2023-06-05T11:16:46;26.00;79.70
33837;DHT22;20140;49.356;8.812;2023-06-05T11:22:10;25.40;69.80
33837;DHT22;20140;49.356;8.812;2023-06-05T11:24:37;25.60;73.40
33837;DHT22;20140;49.356;8.812;2023-06-05T11:27:04;25.90;77.80
33837;DHT22;20140;49.356;8.812;2023-06-05T11:29:31;26.10;78.30
33837;DHT22;20140;49.356;8.812;2023-06-05T11:31:57;26.30;78.90
33837;DHT22;20140;49.356;8.812;2023-06-05T11:34:23;26.20;74.80
33837;DHT22;20140;49.356;8.812;2023-06-05T11:36:48;26.50;76.90
33837;DHT22;20140;49.356;8.812;2023-06-05T11:39:14;26.50;77.20
33837;DHT22;20140;49.356;8.812;2023-06-05T11:41:47;26.50;74.10
33837;DHT22;20140;49.356;8.812;2023-06-05T11:44:29;26.20;73.40
33837;DHT22;20140;49.356;8.812;2023-06-05T11:46:55;26.50;75.80
33837;DHT22;20140;49.356;8.812;2023-06-05T11:49:26;26.70;76.70
33837;DHT22;20140;49.356;8.812;2023-06-05T11:51:52;26.80;73.40
33837;DHT22;20140;49.356;8.812;2023-06-05T11:54:32;27.00;71.10
33837;DHT22;20140;49.356;8.812;2023-06-05T11:57:05;26.80;71.90
33837;DHT22;20140;49.356;8.812;2023-06-05T11:59:35;27.30;67.80
33837;DHT22;20140;49.356;8.812;2023-06-05T12:02:01;26.90;69.20
33837;DHT22;20140;49.356;8.812;2023-06-05T12:04:29;26.90;66.00
33837;DHT22;20140;49.356;8.812;2023-06-05T12:06:55;26.90;64.00
33837;DHT22;20140;49.356;8.812;2023-06-05T12:09:22;27.10;66.20
33837;DHT22;20140;49.356;8.812;2023-06-05T12:11:47;27.10;69.20
33837;DHT22;20140;49.356;8.812;2023-06-05T12:14:28;27.30;67.70
33837;DHT22;20140;49.356;8.812;2023-06-05T12:16:54;27.50;65.40
33837;DHT22;20140;49.356;8.812;2023-06-05T12:19:20;27.70;59.60
33837;DHT22;20140;49.356;8.812;2023-06-05T12:21:47;27.20;66.00
33837;DHT22;20140;49.356;8.812;2023-06-05T12:24:14;27.40;62.10
33837;DHT22;20140;49.356;8.812;2023-06-05T12:26:54;27.20;62.00
33837;DHT22;20140;49.356;8.812;2023-06-05T12:29:22;26.80;58.00
33837;DHT22;20140;49.356;8.812;2023-06-05T12:31:48;26.60;58.60
33837;DHT22;20140;49.356;8.812;2023-06-05T12:34:14;27.00;60.60
33837;DHT22;20140;49.356;8.812;2023-06-05T12:36:43;27.30;60.80
33837;DHT22;20140;49.356;8.812;2023-06-05T12:39:12;26.10;57.10
33837;DHT22;20140;49.356;8.812;2023-06-05T12:41:39;26.50;60.90
33837;DHT22;20140;49.356;8.812;2023-06-05T12:44:06;27.00;63.90
33837;DHT22;20140;49.356;8.812;2023-06-05T12:46:33;27.60;64.30
33837;DHT22;20140;49.356;8.812;2023-06-05T12:48:59;27.70;57.10
33837;DHT22;20140;49.356;8.812;2023-06-05T12:51:26;27.90;59.10
33837;DHT22;20140;49.356;8.812;2023-06-05T12:53:55;28.10;61.00
33837;DHT22;20140;49.356;8.812;2023-06-05T12:56:22;28.40;56.70
33837;DHT22;20140;49.356;8.812;2023-06-05T12:58:57;27.80;55.50
33837;DHT22;20140;49.356;8.812;2023-06-05T13:01:23;27.10;53.90
33837;DHT22;20140;49.356;8.812;2023-06-05T13:03:50;27.20;54.70
33837;DHT22;20140;49.356;8.812;2023-06-05T13:06:15;27.40;55.20
33837;DHT22;20140;49.356;8.812;2023-06-05T13:08:42;27.80;53.20
33837;DHT22;20140;49.356;8.812;2023-06-05T13:11:07;27.80;51.50
33837;DHT22;20140;49.356;8.812;2023-06-05T13:13:33;28.70;56.30
33837;DHT22;20140;49.356;8.812;2023-06-05T13:15:59;29.50;55.00
33837;DHT22;20140;49.356;8.812;2023-06-05T13:18:27;28.60;51.70
33837;DHT22;20140;49.356;8.812;2023-06-05T13:20:52;28.80;52.20
33837;DHT22;20140;49.356;8.812;2023-06-05T13:23:18;29.10;50.40
33837;DHT22;20140;49.356;8.812;2023-06-05T13:25:43;29.20;49.80
33837;DHT22;20140;49.356;8.812;2023-06-05T13:28:09;29.10;49.60
33837;DHT22;20140;49.356;8.812;2023-06-05T13:30:34;28.80;50.30
33837;DHT22;20140;49.356;8.812;2023-06-05T13:33:00;29.80;49.80
33837;DHT22;20140;49.356;8.812;2023-06-05T13:35:26;30.60;52.60
33837;DHT22;20140;49.356;8.812;2023-06-05T13:37:51;31.30;50.90
33837;DHT22;20140;49.356;8.812;2023-06-05T13:40:17;31.50;45.70
33837;DHT22;20140;49.356;8.812;2023-06-05T13:42:43;30.90;46.70
33837;DHT22;20140;49.356;8.812;2023-06-05T13:45:09;30.70;46.50
33837;DHT22;20140;49.356;8.812;2023-06-05T13:47:35;30.90;45.60
33837;DHT22;20140;49.356;8.812;2023-06-05T13:50:01;30.70;43.50
33837;DHT22;20140;49.356;8.812;2023-06-05T13:52:28;31.90;46.90
33837;DHT22;20140;49.356;8.812;2023-06-05T13:54:53;32.90;46.60
33837;DHT22;20140;49.356;8.812;2023-06-05T13:57:19;34.30;43.70
33837;DHT22;20140;49.356;8.812;2023-06-05T13:59:45;34.00;43.20
33837;DHT22;20140;49.356;8.812;2023-06-05T14:02:11;34.00;39.80
33837;DHT22;20140;49.356;8.812;2023-06-05T14:04:37;34.60;40.00
33837;DHT22;20140;49.356;8.812;2023-06-05T14:07:03;34.70;40.30
33837;DHT22;20140;49.356;8.812;2023-06-05T14:09:29;32.30;37.80
33837;DHT22;20140;49.356;8.812;2023-06-05T14:11:55;31.40;41.60
33837;DHT22;20140;49.356;8.812;2023-06-05T14:14:22;31.60;42.60
33837;DHT22;20140;49.356;8.812;2023-06-05T14:16:47;32.50;42.60
33837;DHT22;20140;49.356;8.812;2023-06-05T14:19:13;33.50;41.60
33837;DHT22;20140;49.356;8.812;2023-06-05T14:21:38;32.60;39.40
33837;DHT22;20140;49.356;8.812;2023-06-05T14:24:05;31.20;41.20
33837;DHT22;20140;49.356;8.812;2023-06-05T14:26:31;32.30;41.20
33837;DHT22;20140;49.356;8.812;2023-06-05T14:28:56;31.30;41.20
33837;DHT22;20140;49.356;8.812;2023-06-05T14:31:22;30.80;40.90
33837;DHT22;20140;49.356;8.812;2023-06-05T14:33:51;31.70;41.30
33837;DHT22;20140;49.356;8.812;2023-06-05T14:36:16;32.60;39.80
33837;DHT22;20140;49.356;8.812;2023-06-05T14:38:42;33.90;36.80
33837;DHT22;20140;49.356;8.812;2023-06-05T14:41:07;32.20;38.80
33837;DHT22;20140;49.356;8.812;2023-06-05T14:43:33;33.00;39.10
33837;DHT22;20140;49.356;8.812;2023-06-05T14:45:58;32.20;39.20
33837;DHT22;20140;49.356;8.812;2023-06-05T14:48:25;32.40;40.50
33837;DHT22;20140;49.356;8.812;2023-06-05T14:50:51;30.80;37.80
33837;DHT22;20140;49.356;8.812;2023-06-05T14:53:18;30.30;39.50
33837;DHT22;20140;49.356;8.812;2023-06-05T14:55:44;30.00;40.60
33837;DHT22;20140;49.356;8.812;2023-06-05T14:58:09;29.20;41.40
33837;DHT22;20140;49.356;8.812;2023-06-05T15:00:36;29.70;40.20
33837;DHT22;20140;49.356;8.812;2023-06-05T15:03:02;29.70;39.70
33837;DHT22;20140;49.356;8.812;2023-06-05T15:05:27;29.50;40.00
33837;DHT22;20140;49.356;8.812;2023-06-05T15:07:53;29.60;41.20
33837;DHT22;20140;49.356;8.812;2023-06-05T15:10:19;29.50;39.10
33837;DHT22;20140;49.356;8.812;2023-06-05T15:12:44;31.00;39.70
33837;DHT22;20140;49.356;8.812;2023-06-05T15:15:10;31.10;39.70
33837;DHT22;20140;49.356;8.812;2023-06-05T15:17:36;32.30;38.60
33837;DHT22;20140;49.356;8.812;2023-06-05T15:20:01;32.60;39.30
33837;DHT22;20140;49.356;8.812;2023-06-05T15:22:30;32.40;39.20
33837;DHT22;20140;49.356;8.812;2023-06-05T15:24:55;32.80;38.60
33837;DHT22;20140;49.356;8.812;2023-06-05T15:27:21;32.40;37.30
33837;DHT22;20140;49.356;8.812;2023-06-05T15:29:46;31.00;37.80
33837;DHT22;20140;49.356;8.812;2023-06-05T15:32:12;32.10;38.50
33837;DHT22;20140;49.356;8.812;2023-06-05T15:34:37;30.60;35.00
33837;DHT22;20140;49.356;8.812;2023-06-05T15:37:06;29.80;39.00
33837;DHT22;20140;49.356;8.812;2023-06-05T15:39:31;30.20;43.70
33837;DHT22;20140;49.356;8.812;2023-06-05T15:41:58;30.50;41.80
33837;DHT22;20140;49.356;8.812;2023-06-05T15:44:23;31.20;41.70